LICJ Airport Information

Runway Information
Runway 02 Length 6804 ft width 148 ft
Elevation 42 ft Threshold 10 ft Heading 24
Runway 20 Length 6804 ft Width 148 ft
Elevation 22 ft Threshold 10 ft Heading 204
Runway 07 Length 10912 ft width 197 ft
Elevation 33 ft Threshold 404 ft Heading 67
Runway 25 Length 10912 ft Width 197 ft
Elevation 50 ft Threshold 679 ft Heading 247
Airport Frequencies
Type APP Name APP Frequency 120.2 MHZ
Type GND Name RAISI GND Frequency 121.625 MHZ
Type TWR Name RAISI TWR Frequency 119.05 MHZ
Airport Navaids
Type VOR-DME Name Palermo Frequency 112300 KHZ
Type NDB Name Palermo Frequency 356 KHZ
Type VOR-DME Name Raisi Frequency 113000 KHZ
Type NDB Name Raisi Frequency 329 KHZ
Airport Weather Information & NOTAM
ADDS - METARS form results

(1629 UTC 07 December 2019)
Data provider http://aviationweather.gov/metar/data/
 
METAR text: LICJ 071620Z 11002KT CAVOK 17/12 Q1021
Conditions at: LICJ (PALERMO/POINT RA, IT) observed 1620 UTC 07 December 2019
Temperature: 17.0°C (63°F)
Dewpoint: 12.0°C (54°F) [RH = 72%]
Pressure (altimeter): 30.15 inches Hg (1021.0 mb)
Winds: from the ESE (110 degrees) at 2 MPH (2 knots; 1.0 m/s)
Visibility: 6 or more miles (10+ km)
Ceiling: ceiling and visibility are OK
Clouds: unknown
Weather: no significant weather observed at this time

METAR text: LICJ 071550Z VRB02KT CAVOK 17/12 Q1021
Conditions at: LICJ (PALERMO/POINT RA, IT) observed 1550 UTC 07 December 2019
Temperature: 17.0°C (63°F)
Dewpoint: 12.0°C (54°F) [RH = 72%]
Pressure (altimeter): 30.15 inches Hg (1021.0 mb)
Winds: variable direction winds at 2 MPH (2 knots; 1.0 m/s)
Visibility: 6 or more miles (10+ km)
Ceiling: ceiling and visibility are OK
Clouds: unknown
Weather: no significant weather observed at this time

Forecast for: LICJ (PALERMO/POINT RA, IT)
Text: TAF LICJ 071100Z 0712/0812 19008KT CAVOK
Forecast period: 1200 UTC 07 December 2019 to 1200 UTC 08 December 2019
Forecast type: FROM: standard forecast or significant change
Winds: from the S (190 degrees) at 9 MPH (8 knots; 4.1 m/s)
Visibility: 6 or more miles 10+ km)
Ceiling: unknown
Clouds: missing
Weather: NSW  (no significant weather)